Time;durP1;ratioP1;P1;durP2;ratioP2;P2;SDS_P1;SDS_P2;PMS_P1;PMS_P2;Temp;Humidity;BMP_temperature;BMP_pressure;BME280_temperature;BME280_humidity;BME280_pressure;Samples;Min_cycle;Max_cycle;Signal;HPM_P1;HPM_P2
2022/01/07 00:01:11;;;;;;;17.13;5.40;;;;;;;;;;5038587;28;20703;-67
2022/01/07 00:03:37;;;;;;;11.23;4.67;;;;;;;;;;5043420;28;20197;-68
2022/01/07 00:06:05;;;;;;;13.13;5.13;;;;;;;;;;5043367;28;20186;-68
2022/01/07 00:08:31;;;;;;;16.27;5.57;;;;;;;;;;5048461;28;20228;-68
2022/01/07 00:10:56;;;;;;;17.50;5.23;;;;;;;;;;5046302;28;20205;-69
2022/01/07 00:13:22;;;;;;;15.57;4.80;;;;;;;;;;5045828;28;20178;-69
2022/01/07 00:15:48;;;;;;;11.97;4.83;;;;;;;;;;5043106;28;20173;-68
2022/01/07 00:18:13;;;;;;;13.30;4.40;;;;;;;;;;5043852;28;20181;-70
2022/01/07 00:20:39;;;;;;;8.70;3.87;;;;;;;;;;5045902;28;20210;-69
2022/01/07 00:23:05;;;;;;;16.63;5.27;;;;;;;;;;5048200;28;20186;-69
2022/01/07 00:25:30;;;;;;;17.50;4.83;;;;;;;;;;5043920;28;20644;-69
2022/01/07 00:27:56;;;;;;;11.60;4.87;;;;;;;;;;5049311;28;20385;-69
2022/01/07 00:30:22;;;;;;;10.77;4.37;;;;;;;;;;5045273;28;20578;-69
2022/01/07 00:32:48;;;;;;;12.60;5.30;;;;;;;;;;5046680;28;20189;-68
2022/01/07 00:35:16;;;;;;;15.83;4.30;;;;;;;;;;5045996;28;20651;-69
2022/01/07 00:37:41;;;;;;;13.27;4.37;;;;;;;;;;5044797;28;20303;-69
2022/01/07 00:40:10;;;;;;;18.17;4.47;;;;;;;;;;5046286;28;20309;-68
2022/01/07 00:42:35;;;;;;;14.77;4.47;;;;;;;;;;5048337;28;20184;-67
2022/01/07 00:45:02;;;;;;;17.57;4.40;;;;;;;;;;5041711;28;20196;-68
2022/01/07 00:47:27;;;;;;;11.97;4.00;;;;;;;;;;5043721;28;20659;-69
2022/01/07 00:49:53;;;;;;;13.53;4.10;;;;;;;;;;5042617;28;20231;-69
2022/01/07 00:52:18;;;;;;;11.47;3.90;;;;;;;;;;5045010;28;20215;-68
2022/01/07 00:54:44;;;;;;;14.63;4.03;;;;;;;;;;5043771;28;20213;-68
2022/01/07 00:57:09;;;;;;;11.67;4.30;;;;;;;;;;5044164;28;20221;-68
2022/01/07 00:59:35;;;;;;;10.27;4.00;;;;;;;;;;5044676;28;20198;-68
2022/01/07 01:02:00;;;;;;;14.37;3.77;;;;;;;;;;5043548;28;20595;-68
2022/01/07 01:04:26;;;;;;;17.10;4.83;;;;;;;;;;5045842;28;20237;-69
2022/01/07 01:06:52;;;;;;;13.53;4.30;;;;;;;;;;5042770;28;20643;-69
2022/01/07 01:09:17;;;;;;;10.80;4.00;;;;;;;;;;5044114;28;20711;-68
2022/01/07 01:11:42;;;;;;;17.03;4.20;;;;;;;;;;5042836;28;20238;-68
2022/01/07 01:14:08;;;;;;;11.73;4.53;;;;;;;;;;5044957;28;20189;-68
2022/01/07 01:16:35;;;;;;;9.47;4.00;;;;;;;;;;5046569;28;20185;-70
2022/01/07 01:19:00;;;;;;;13.03;4.90;;;;;;;;;;5043715;28;20260;-69
2022/01/07 01:21:26;;;;;;;9.40;4.27;;;;;;;;;;5045303;28;20178;-68
2022/01/07 01:23:51;;;;;;;11.40;4.90;;;;;;;;;;5045895;28;20542;-68
2022/01/07 01:26:20;;;;;;;11.73;4.23;;;;;;;;;;5046960;28;20190;-69
2022/01/07 01:28:46;;;;;;;11.70;4.87;;;;;;;;;;5044606;28;20190;-69
2022/01/07 01:31:14;;;;;;;14.47;5.03;;;;;;;;;;5045303;28;20220;-69
2022/01/07 01:33:40;;;;;;;11.43;4.10;;;;;;;;;;5042980;28;20190;-71
2022/01/07 01:36:05;;;;;;;16.57;5.33;;;;;;;;;;5045846;28;20588;-69
2022/01/07 01:38:31;;;;;;;14.37;5.43;;;;;;;;;;5046194;28;20216;-69
2022/01/07 01:40:56;;;;;;;15.37;5.37;;;;;;;;;;5044941;28;20197;-69
2022/01/07 01:43:22;;;;;;;11.37;5.67;;;;;;;;;;5042492;28;20640;-69
2022/01/07 01:45:47;;;;;;;16.90;5.53;;;;;;;;;;5038731;28;20271;-69
2022/01/07 01:48:13;;;;;;;12.73;5.43;;;;;;;;;;5043755;28;20280;-70
2022/01/07 01:50:38;;;;;;;21.47;5.97;;;;;;;;;;5037211;28;20181;-69
2022/01/07 01:53:04;;;;;;;15.67;6.13;;;;;;;;;;5045246;28;20177;-70
2022/01/07 01:55:29;;;;;;;15.00;6.20;;;;;;;;;;5044600;28;20272;-70
2022/01/07 01:57:55;;;;;;;14.60;6.50;;;;;;;;;;5040657;28;20601;-70
2022/01/07 02:00:23;;;;;;;13.57;5.53;;;;;;;;;;5036942;28;20889;-71
2022/01/07 02:02:48;;;;;;;13.93;6.23;;;;;;;;;;5043255;28;20195;-70
2022/01/07 02:05:14;;;;;;;18.17;6.60;;;;;;;;;;5038783;28;20549;-71
2022/01/07 02:07:41;;;;;;;13.60;6.33;;;;;;;;;;5044958;28;20253;-70
2022/01/07 02:10:09;;;;;;;16.97;7.27;;;;;;;;;;5042159;28;20190;-72
2022/01/07 02:12:35;;;;;;;17.13;6.93;;;;;;;;;;5044968;28;20181;-72
2022/01/07 02:15:00;;;;;;;14.60;7.53;;;;;;;;;;5039778;28;20189;-71
2022/01/07 02:17:27;;;;;;;21.03;8.70;;;;;;;;;;5043830;28;20505;-71
2022/01/07 02:19:53;;;;;;;14.80;6.70;;;;;;;;;;5043177;28;20311;-72
2022/01/07 02:22:19;;;;;;;14.37;7.23;;;;;;;;;;5045072;28;20675;-73
2022/01/07 02:24:47;;;;;;;18.33;7.40;;;;;;;;;;5041575;28;20248;-73
2022/01/07 02:27:14;;;;;;;17.97;7.83;;;;;;;;;;5035110;28;20656;-74
2022/01/07 02:29:39;;;;;;;18.07;7.80;;;;;;;;;;5040614;28;20170;-72
2022/01/07 02:32:06;;;;;;;20.87;7.87;;;;;;;;;;5040130;28;20199;-72
2022/01/07 02:34:31;;;;;;;15.93;7.73;;;;;;;;;;5041538;28;20174;-72
2022/01/07 02:36:57;;;;;;;24.70;8.67;;;;;;;;;;5045270;28;20200;-72
2022/01/07 02:39:22;;;;;;;17.60;7.80;;;;;;;;;;5041399;28;20509;-72
2022/01/07 02:41:47;;;;;;;18.47;9.63;;;;;;;;;;5046088;28;20189;-73
2022/01/07 02:44:13;;;;;;;16.47;8.17;;;;;;;;;;5041455;28;20575;-73
2022/01/07 02:46:39;;;;;;;16.77;7.30;;;;;;;;;;5036565;28;20608;-74
2022/01/07 02:49:09;;;;;;;19.50;8.20;;;;;;;;;;5045131;28;20614;-73
2022/01/07 02:51:34;;;;;;;21.10;8.57;;;;;;;;;;5043321;28;20197;-71
2022/01/07 02:54:00;;;;;;;14.43;8.47;;;;;;;;;;5042755;28;20207;-74
2022/01/07 02:56:25;;;;;;;20.50;8.30;;;;;;;;;;5044323;28;20193;-73
2022/01/07 02:58:50;;;;;;;21.60;8.70;;;;;;;;;;5042719;28;20227;-72
2022/01/07 03:01:16;;;;;;;16.13;8.60;;;;;;;;;;5042261;28;20205;-72
2022/01/07 03:03:42;;;;;;;21.10;9.40;;;;;;;;;;5044936;28;20755;-73
2022/01/07 03:06:07;;;;;;;18.13;9.17;;;;;;;;;;5041744;28;20288;-73
2022/01/07 03:08:32;;;;;;;16.67;8.50;;;;;;;;;;5043024;28;20265;-72
2022/01/07 03:10:58;;;;;;;21.70;9.87;;;;;;;;;;5042468;28;20269;-72
2022/01/07 03:13:23;;;;;;;19.97;9.43;;;;;;;;;;5042421;28;20178;-71
2022/01/07 03:15:48;;;;;;;19.87;9.27;;;;;;;;;;5043252;28;20264;-72
2022/01/07 03:18:14;;;;;;;22.60;9.40;;;;;;;;;;5041040;28;20658;-71
2022/01/07 03:20:40;;;;;;;25.03;9.37;;;;;;;;;;5042958;28;20197;-71
2022/01/07 03:23:11;;;;;;;21.53;9.50;;;;;;;;;;5041723;28;20707;-71
2022/01/07 03:25:37;;;;;;;17.57;8.43;;;;;;;;;;5037625;28;20181;-70
2022/01/07 03:28:03;;;;;;;20.47;9.23;;;;;;;;;;5042262;28;20194;-72
2022/01/07 03:30:29;;;;;;;17.90;9.33;;;;;;;;;;5044614;28;20235;-72
2022/01/07 03:32:54;;;;;;;19.70;9.13;;;;;;;;;;5041774;28;20201;-72
2022/01/07 03:35:19;;;;;;;21.90;9.53;;;;;;;;;;5034777;28;20190;-72
2022/01/07 03:37:45;;;;;;;16.77;9.30;;;;;;;;;;5041443;28;20308;-72
2022/01/07 03:40:13;;;;;;;19.27;9.33;;;;;;;;;;5038907;28;20206;-71
2022/01/07 03:42:39;;;;;;;18.83;9.37;;;;;;;;;;5044040;28;20239;-72
2022/01/07 03:45:05;;;;;;;19.33;9.37;;;;;;;;;;5043952;28;20189;-72
2022/01/07 03:47:31;;;;;;;19.80;8.63;;;;;;;;;;5044837;28;20193;-71
2022/01/07 03:49:57;;;;;;;16.00;8.23;;;;;;;;;;5045762;28;20228;-72
2022/01/07 03:52:22;;;;;;;17.53;9.03;;;;;;;;;;5048238;28;20186;-71
2022/01/07 03:54:48;;;;;;;15.53;8.43;;;;;;;;;;5044163;28;20208;-69
2022/01/07 03:57:13;;;;;;;16.17;8.53;;;;;;;;;;5051179;28;20236;-70
2022/01/07 03:59:39;;;;;;;15.37;8.47;;;;;;;;;;5046533;28;20201;-69
2022/01/07 04:02:04;;;;;;;18.10;9.37;;;;;;;;;;5047190;28;20193;-69
2022/01/07 04:04:29;;;;;;;17.40;8.67;;;;;;;;;;5040261;28;20317;-70
2022/01/07 04:06:55;;;;;;;19.50;9.00;;;;;;;;;;5041550;28;20185;-69
2022/01/07 04:09:20;;;;;;;15.57;7.93;;;;;;;;;;5044797;28;20192;-70
2022/01/07 04:11:46;;;;;;;18.50;8.07;;;;;;;;;;5049173;28;20177;-70
2022/01/07 04:14:11;;;;;;;15.13;8.13;;;;;;;;;;5043447;28;20185;-70
2022/01/07 04:16:36;;;;;;;14.83;8.30;;;;;;;;;;5042420;28;20182;-69
2022/01/07 04:19:01;;;;;;;19.37;8.47;;;;;;;;;;5044184;28;20216;-70
2022/01/07 04:21:27;;;;;;;16.60;8.97;;;;;;;;;;5047009;28;20284;-69
2022/01/07 04:23:52;;;;;;;18.77;8.13;;;;;;;;;;5044207;28;20184;-70
2022/01/07 04:26:17;;;;;;;21.00;8.47;;;;;;;;;;5045173;28;20193;-68
2022/01/07 04:28:43;;;;;;;17.20;8.60;;;;;;;;;;5041568;28;20174;-69
2022/01/07 04:31:08;;;;;;;14.93;8.07;;;;;;;;;;5045358;28;20295;-70
2022/01/07 04:33:34;;;;;;;18.60;8.03;;;;;;;;;;5041346;28;20181;-69
2022/01/07 04:36:00;;;;;;;18.83;8.57;;;;;;;;;;5041152;28;20184;-70
2022/01/07 04:38:25;;;;;;;15.87;8.07;;;;;;;;;;5043284;28;20173;-70
2022/01/07 04:40:51;;;;;;;17.77;8.47;;;;;;;;;;5047404;28;20284;-69
2022/01/07 04:43:17;;;;;;;16.10;8.07;;;;;;;;;;5041609;28;20248;-71
2022/01/07 04:45:43;;;;;;;16.57;8.07;;;;;;;;;;5046735;28;20197;-70
2022/01/07 04:48:09;;;;;;;16.70;7.30;;;;;;;;;;5044406;28;20185;-71
2022/01/07 04:50:35;;;;;;;12.90;7.90;;;;;;;;;;5045077;28;20217;-72
2022/01/07 04:53:01;;;;;;;17.23;7.90;;;;;;;;;;5043448;28;20182;-70
2022/01/07 04:55:37;;;;;;;13.70;7.80;;;;;;;;;;5039218;28;20201;-71
2022/01/07 04:58:07;;;;;;;13.30;7.30;;;;;;;;;;5046966;28;20545;-72
2022/01/07 05:00:33;;;;;;;14.13;7.73;;;;;;;;;;5044389;28;20205;-72
2022/01/07 05:02:58;;;;;;;10.73;6.93;;;;;;;;;;5044781;28;20189;-73
2022/01/07 05:05:23;;;;;;;13.67;6.97;;;;;;;;;;5044165;28;20226;-72
2022/01/07 05:07:49;;;;;;;14.43;6.87;;;;;;;;;;5046986;28;20262;-72
2022/01/07 05:10:15;;;;;;;16.17;7.73;;;;;;;;;;5038352;28;20667;-73
2022/01/07 05:12:42;;;;;;;13.80;7.40;;;;;;;;;;5046517;28;20185;-72
2022/01/07 05:15:09;;;;;;;14.47;7.20;;;;;;;;;;5042218;28;20182;-72
2022/01/07 05:17:35;;;;;;;21.97;7.17;;;;;;;;;;5042852;28;20265;-72
2022/01/07 05:20:00;;;;;;;14.10;7.10;;;;;;;;;;5046168;28;20316;-72
2022/01/07 05:22:26;;;;;;;19.03;7.03;;;;;;;;;;5041216;28;20228;-72
2022/01/07 05:24:51;;;;;;;15.77;7.37;;;;;;;;;;5048200;28;20253;-72
2022/01/07 05:27:16;;;;;;;16.43;6.97;;;;;;;;;;5042409;28;20199;-72
2022/01/07 05:29:42;;;;;;;13.13;6.47;;;;;;;;;;5044087;28;20189;-71
2022/01/07 05:32:08;;;;;;;14.13;6.87;;;;;;;;;;5041424;28;20531;-72
2022/01/07 05:34:33;;;;;;;16.23;7.13;;;;;;;;;;5041641;28;20197;-72
2022/01/07 05:36:59;;;;;;;14.47;7.30;;;;;;;;;;5045365;28;20580;-72
2022/01/07 05:39:24;;;;;;;13.47;6.43;;;;;;;;;;5044293;28;20220;-72
2022/01/07 05:41:51;;;;;;;13.77;6.33;;;;;;;;;;5038340;28;20182;-72
2022/01/07 05:44:16;;;;;;;15.23;6.47;;;;;;;;;;5043977;28;20181;-72
2022/01/07 05:46:42;;;;;;;13.67;6.53;;;;;;;;;;5046976;28;20185;-72
2022/01/07 05:49:07;;;;;;;12.03;6.23;;;;;;;;;;5043891;28;20268;-71
2022/01/07 05:51:33;;;;;;;14.10;5.83;;;;;;;;;;5041946;28;20659;-71
2022/01/07 05:53:58;;;;;;;10.33;5.73;;;;;;;;;;5038327;28;20201;-72
2022/01/07 05:56:23;;;;;;;12.40;5.70;;;;;;;;;;5045487;28;20189;-72
2022/01/07 05:58:49;;;;;;;8.60;5.23;;;;;;;;;;5026384;28;20209;-71
2022/01/07 06:01:15;;;;;;;12.07;5.90;;;;;;;;;;5044417;28;20211;-71
2022/01/07 06:03:41;;;;;;;8.20;5.93;;;;;;;;;;5041390;28;20193;-71
2022/01/07 06:06:06;;;;;;;11.27;5.73;;;;;;;;;;5043926;28;20185;-72
2022/01/07 06:08:32;;;;;;;10.63;6.10;;;;;;;;;;5040452;28;20186;-70
2022/01/07 06:10:57;;;;;;;12.10;6.57;;;;;;;;;;5042170;28;20257;-71
2022/01/07 06:13:23;;;;;;;8.33;5.37;;;;;;;;;;5042098;28;20355;-70
2022/01/07 06:15:48;;;;;;;10.10;5.13;;;;;;;;;;5043138;28;20197;-69
2022/01/07 06:18:14;;;;;;;13.13;5.67;;;;;;;;;;5041608;28;20731;-70
2022/01/07 06:20:39;;;;;;;11.27;5.53;;;;;;;;;;5038655;28;20776;-70
2022/01/07 06:23:04;;;;;;;9.63;5.47;;;;;;;;;;5041165;28;20561;-72
2022/01/07 06:25:30;;;;;;;11.80;5.83;;;;;;;;;;5043981;28;20185;-70
2022/01/07 06:27:55;;;;;;;10.37;6.00;;;;;;;;;;5041166;28;20181;-71
2022/01/07 06:30:20;;;;;;;9.00;6.10;;;;;;;;;;5042450;28;20202;-70
2022/01/07 06:32:46;;;;;;;12.00;6.53;;;;;;;;;;5036758;28;20205;-71
2022/01/07 06:35:11;;;;;;;11.50;6.00;;;;;;;;;;5039623;28;20192;-70
2022/01/07 06:37:38;;;;;;;11.53;6.47;;;;;;;;;;5044733;28;20218;-70
2022/01/07 06:40:04;;;;;;;12.70;6.20;;;;;;;;;;5042964;28;20284;-69
2022/01/07 06:42:30;;;;;;;11.63;5.80;;;;;;;;;;5045071;28;20314;-70
2022/01/07 06:44:55;;;;;;;10.23;6.60;;;;;;;;;;5042220;28;20604;-70
2022/01/07 06:47:21;;;;;;;13.23;6.33;;;;;;;;;;5041705;28;20573;-69
2022/01/07 06:49:46;;;;;;;16.73;6.80;;;;;;;;;;5041310;28;20174;-70
2022/01/07 06:52:12;;;;;;;11.13;6.33;;;;;;;;;;5043951;28;20199;-70
2022/01/07 06:54:37;;;;;;;11.30;6.77;;;;;;;;;;5039117;28;20316;-70
2022/01/07 06:57:02;;;;;;;16.07;7.47;;;;;;;;;;5044458;28;20237;-70
2022/01/07 06:59:28;;;;;;;9.07;6.27;;;;;;;;;;5038788;28;20182;-70
2022/01/07 07:01:53;;;;;;;13.47;6.70;;;;;;;;;;5043070;28;20196;-70
2022/01/07 07:04:18;;;;;;;11.40;6.70;;;;;;;;;;5037642;28;20185;-70
2022/01/07 07:06:44;;;;;;;11.13;6.47;;;;;;;;;;5039362;28;20212;-70
2022/01/07 07:09:10;;;;;;;17.17;7.27;;;;;;;;;;5044856;28;20190;-69
2022/01/07 07:11:35;;;;;;;13.63;7.00;;;;;;;;;;5041967;28;20205;-69
2022/01/07 07:14:01;;;;;;;12.67;6.87;;;;;;;;;;5037527;28;20186;-69
2022/01/07 07:16:26;;;;;;;15.27;7.23;;;;;;;;;;5043103;28;20192;-69
2022/01/07 07:18:52;;;;;;;13.77;7.07;;;;;;;;;;5039642;28;20273;-70
2022/01/07 07:21:18;;;;;;;14.43;8.20;;;;;;;;;;5042814;28;20236;-69
2022/01/07 07:23:43;;;;;;;13.40;8.00;;;;;;;;;;5043228;28;20720;-69
2022/01/07 07:26:08;;;;;;;14.13;7.77;;;;;;;;;;5039677;28;20465;-69
2022/01/07 07:28:36;;;;;;;15.80;8.80;;;;;;;;;;5046364;28;20193;-70
2022/01/07 07:31:04;;;;;;;15.23;9.00;;;;;;;;;;5039070;28;20217;-70
2022/01/07 07:33:53;;;;;;;12.97;8.07;;;;;;;;;;5044828;28;20189;-69
2022/01/07 07:36:29;;;;;;;15.20;8.67;;;;;;;;;;5038921;28;20248;-69
2022/01/07 07:38:55;;;;;;;12.20;8.60;;;;;;;;;;5044620;28;20189;-69
2022/01/07 07:41:20;;;;;;;15.13;9.37;;;;;;;;;;5039425;28;20249;-69
2022/01/07 07:43:52;;;;;;;16.00;9.33;;;;;;;;;;5047198;28;20217;-69
2022/01/07 07:46:19;;;;;;;14.70;9.53;;;;;;;;;;5042545;28;20200;-70
2022/01/07 07:48:46;;;;;;;18.63;10.03;;;;;;;;;;5048903;28;20200;-68
2022/01/07 07:51:12;;;;;;;15.80;10.20;;;;;;;;;;5042737;28;20181;-69
2022/01/07 07:53:37;;;;;;;16.83;9.43;;;;;;;;;;5043482;28;20625;-69
2022/01/07 07:56:03;;;;;;;24.00;10.57;;;;;;;;;;5046615;28;20249;-69
2022/01/07 07:58:29;;;;;;;15.23;10.03;;;;;;;;;;5043908;28;20711;-69
2022/01/07 08:00:54;;;;;;;18.37;11.00;;;;;;;;;;5040836;28;20213;-69
2022/01/07 08:03:21;;;;;;;16.80;10.40;;;;;;;;;;5036463;28;20177;-69
2022/01/07 08:05:46;;;;;;;22.47;11.67;;;;;;;;;;5042025;28;20186;-69
2022/01/07 08:08:12;;;;;;;18.70;11.17;;;;;;;;;;5043230;28;20670;-70
2022/01/07 08:10:45;;;;;;;20.47;11.40;;;;;;;;;;5043689;28;20201;-71
2022/01/07 08:18:23;;;;;;;16.43;10.83;;;;;;;;;;5037967;28;20224;-70
2022/01/07 08:20:52;;;;;;;21.80;12.03;;;;;;;;;;5043468;28;20266;-70
2022/01/07 08:23:18;;;;;;;20.87;12.03;;;;;;;;;;5041905;28;20808;-69
2022/01/07 08:25:44;;;;;;;20.00;12.13;;;;;;;;;;5040556;28;20268;-69
2022/01/07 08:28:10;;;;;;;18.57;11.57;;;;;;;;;;5042726;28;20617;-69
2022/01/07 08:30:37;;;;;;;19.80;11.90;;;;;;;;;;5040798;28;20205;-70
2022/01/07 08:35:50;;;;;;;24.10;13.07;;;;;;;;;;5039763;28;20251;-70
2022/01/07 08:38:15;;;;;;;22.20;12.63;;;;;;;;;;5043302;28;20194;-69
2022/01/07 08:40:41;;;;;;;20.30;11.67;;;;;;;;;;5041947;28;20210;-69
2022/01/07 08:43:06;;;;;;;22.53;12.83;;;;;;;;;;5040479;28;20269;-69
2022/01/07 08:45:32;;;;;;;27.90;13.17;;;;;;;;;;5038151;28;20201;-68
2022/01/07 08:47:59;;;;;;;20.07;12.70;;;;;;;;;;5037444;28;20201;-69
2022/01/07 08:50:25;;;;;;;20.23;12.60;;;;;;;;;;5034146;28;20193;-68
2022/01/07 08:52:50;;;;;;;19.17;13.07;;;;;;;;;;5032341;28;20186;-69
2022/01/07 08:55:16;;;;;;;27.43;13.47;;;;;;;;;;5034675;28;20684;-68
2022/01/07 08:57:41;;;;;;;23.00;12.27;;;;;;;;;;5032585;28;20540;-69
2022/01/07 09:00:08;;;;;;;25.47;12.80;;;;;;;;;;5028212;28;20654;-70
2022/01/07 09:02:33;;;;;;;26.10;13.30;;;;;;;;;;5031640;28;20201;-69
2022/01/07 09:04:58;;;;;;;24.53;13.53;;;;;;;;;;4334809;28;10000812;-69
2022/01/07 09:07:23;;;;;;;25.00;13.57;;;;;;;;;;5026899;28;20727;-69
2022/01/07 09:09:49;;;;;;;22.83;13.30;;;;;;;;;;5026647;28;20220;-69
2022/01/07 09:12:14;;;;;;;27.03;13.27;;;;;;;;;;5027634;28;20276;-69
2022/01/07 09:14:39;;;;;;;29.87;14.17;;;;;;;;;;5028091;28;20193;-69
2022/01/07 09:17:06;;;;;;;19.00;12.20;;;;;;;;;;5027796;28;20186;-69
2022/01/07 09:19:31;;;;;;;21.27;12.40;;;;;;;;;;5032477;28;20296;-69
2022/01/07 09:21:57;;;;;;;20.73;12.43;;;;;;;;;;5031454;28;20632;-69
2022/01/07 09:24:23;;;;;;;22.90;13.23;;;;;;;;;;5032516;28;20193;-69
2022/01/07 09:26:48;;;;;;;20.87;12.57;;;;;;;;;;5031085;28;20202;-69
2022/01/07 09:29:14;;;;;;;18.87;12.60;;;;;;;;;;5029936;28;20220;-69
2022/01/07 09:31:39;;;;;;;26.00;13.23;;;;;;;;;;5033331;28;21027;-70
2022/01/07 09:34:06;;;;;;;24.30;13.00;;;;;;;;;;5034708;28;20232;-69
2022/01/07 09:36:32;;;;;;;22.53;11.70;;;;;;;;;;5034219;28;20624;-70
2022/01/07 09:38:57;;;;;;;20.03;11.77;;;;;;;;;;5032860;28;20316;-68
2022/01/07 09:41:23;;;;;;;21.87;12.97;;;;;;;;;;5035011;28;20214;-69
2022/01/07 09:43:48;;;;;;;22.87;12.23;;;;;;;;;;5033682;28;20279;-69
2022/01/07 09:46:15;;;;;;;22.43;11.70;;;;;;;;;;5032232;28;20189;-69
2022/01/07 09:48:41;;;;;;;22.67;12.47;;;;;;;;;;5035284;28;20190;-69
2022/01/07 09:51:07;;;;;;;18.43;11.50;;;;;;;;;;5036559;28;20204;-70
2022/01/07 09:53:32;;;;;;;21.67;10.93;;;;;;;;;;5033599;28;20185;-70
2022/01/07 09:55:58;;;;;;;16.90;11.23;;;;;;;;;;5033913;28;20272;-69
2022/01/07 09:58:23;;;;;;;21.37;11.37;;;;;;;;;;5036141;28;20360;-69
2022/01/07 10:00:48;;;;;;;15.40;10.33;;;;;;;;;;5033715;28;20345;-69
2022/01/07 10:03:16;;;;;;;22.53;11.30;;;;;;;;;;5035810;28;20902;-69
2022/01/07 10:05:49;;;;;;;23.87;11.27;;;;;;;;;;5038590;28;20190;-68
2022/01/07 10:08:22;;;;;;;16.87;10.60;;;;;;;;;;5034803;28;20192;-69
2022/01/07 10:11:08;;;;;;;17.03;10.90;;;;;;;;;;5033511;28;20492;-69
2022/01/07 10:13:33;;;;;;;17.23;10.03;;;;;;;;;;5038495;28;20189;-70
2022/01/07 10:16:12;;;;;;;18.30;11.60;;;;;;;;;;5035443;28;20729;-68
2022/01/07 10:18:37;;;;;;;19.23;10.53;;;;;;;;;;5036292;28;20219;-69
2022/01/07 10:21:08;;;;;;;25.43;11.40;;;;;;;;;;5037151;28;20205;-68
2022/01/07 10:23:33;;;;;;;17.73;10.73;;;;;;;;;;5041434;28;20189;-68
2022/01/07 10:25:59;;;;;;;23.97;10.77;;;;;;;;;;5040952;28;20607;-69
2022/01/07 10:28:33;;;;;;;19.73;10.83;;;;;;;;;;5041253;28;20222;-70
2022/01/07 10:31:00;;;;;;;21.77;11.77;;;;;;;;;;5042621;28;20612;-69
2022/01/07 10:33:31;;;;;;;22.60;11.00;;;;;;;;;;5044221;28;20919;-69
2022/01/07 10:36:13;;;;;;;21.20;10.77;;;;;;;;;;5043121;28;20193;-69
2022/01/07 10:38:48;;;;;;;14.23;10.37;;;;;;;;;;5039246;28;20204;-69
2022/01/07 10:41:14;;;;;;;16.87;10.67;;;;;;;;;;5037049;28;20220;-69
2022/01/07 10:43:40;;;;;;;15.70;9.70;;;;;;;;;;5036796;28;20557;-68
2022/01/07 10:46:08;;;;;;;14.90;8.97;;;;;;;;;;5039238;28;20695;-69
2022/01/07 10:48:39;;;;;;;18.53;9.90;;;;;;;;;;5040851;28;20233;-69
2022/01/07 10:51:10;;;;;;;17.13;10.03;;;;;;;;;;5041601;28;20185;-67
2022/01/07 10:53:37;;;;;;;21.53;10.63;;;;;;;;;;5047570;28;20181;-69
2022/01/07 10:56:06;;;;;;;18.17;9.03;;;;;;;;;;5045342;28;20498;-69
2022/01/07 10:58:48;;;;;;;19.20;8.67;;;;;;;;;;5045472;28;20660;-69
2022/01/07 11:01:19;;;;;;;14.63;9.03;;;;;;;;;;5046955;28;20701;-69
2022/01/07 11:03:46;;;;;;;19.93;9.73;;;;;;;;;;5038476;28;20193;-70
2022/01/07 11:06:11;;;;;;;16.67;9.00;;;;;;;;;;5044322;28;20182;-68
2022/01/07 11:08:37;;;;;;;16.47;8.43;;;;;;;;;;5044380;28;20208;-68
2022/01/07 11:11:03;;;;;;;17.43;8.47;;;;;;;;;;5044180;28;20194;-68
2022/01/07 11:13:30;;;;;;;13.37;7.83;;;;;;;;;;5043292;28;20686;-68
2022/01/07 11:15:55;;;;;;;14.00;8.13;;;;;;;;;;5043334;28;20647;-68
2022/01/07 11:18:20;;;;;;;18.87;8.37;;;;;;;;;;5046082;28;20188;-68
2022/01/07 11:20:46;;;;;;;16.30;8.13;;;;;;;;;;5046870;28;20229;-69
2022/01/07 11:23:11;;;;;;;15.60;7.60;;;;;;;;;;5045287;28;20189;-68
2022/01/07 11:25:37;;;;;;;12.83;8.00;;;;;;;;;;5044584;28;20265;-68
2022/01/07 11:28:03;;;;;;;15.13;8.03;;;;;;;;;;5047887;28;20193;-68
2022/01/07 11:30:32;;;;;;;18.50;7.83;;;;;;;;;;5042266;28;20201;-69
2022/01/07 11:32:59;;;;;;;18.40;8.70;;;;;;;;;;5045856;28;20185;-68
2022/01/07 11:35:25;;;;;;;22.77;8.03;;;;;;;;;;5045178;28;20189;-68
2022/01/07 11:37:58;;;;;;;14.07;7.40;;;;;;;;;;5045956;28;20197;-68
2022/01/07 11:40:33;;;;;;;18.30;8.57;;;;;;;;;;5043915;28;20769;-68
2022/01/07 11:43:17;;;;;;;16.83;7.33;;;;;;;;;;5045127;28;20736;-68
2022/01/07 11:45:43;;;;;;;12.87;7.20;;;;;;;;;;5046924;28;20190;-69
2022/01/07 11:48:15;;;;;;;15.60;8.00;;;;;;;;;;5041313;28;20277;-68
2022/01/07 11:51:00;;;;;;;14.03;8.30;;;;;;;;;;5048377;28;20687;-69
2022/01/07 11:53:48;;;;;;;16.37;7.73;;;;;;;;;;5048386;28;20181;-68
2022/01/07 11:56:19;;;;;;;15.17;7.07;;;;;;;;;;5046574;28;20213;-68
2022/01/07 11:58:55;;;;;;;14.70;7.73;;;;;;;;;;5048316;28;20252;-69
2022/01/07 12:01:35;;;;;;;17.17;8.20;;;;;;;;;;5045456;28;20206;-68
2022/01/07 12:04:23;;;;;;;12.60;7.70;;;;;;;;;;5044492;28;20196;-68
2022/01/07 12:06:50;;;;;;;18.27;7.43;;;;;;;;;;5046957;28;20180;-68
2022/01/07 12:09:19;;;;;;;14.30;7.00;;;;;;;;;;5048243;28;20182;-68
2022/01/07 12:11:51;;;;;;;11.30;7.20;;;;;;;;;;5044013;28;20181;-68
2022/01/07 12:14:20;;;;;;;20.87;7.47;;;;;;;;;;5046913;28;20808;-68
2022/01/07 12:16:49;;;;;;;14.23;7.40;;;;;;;;;;5038127;28;20387;-68
2022/01/07 12:19:23;;;;;;;15.77;8.20;;;;;;;;;;5041300;28;20189;-67
2022/01/07 12:21:53;;;;;;;16.93;7.67;;;;;;;;;;5047737;28;20247;-68
2022/01/07 12:24:22;;;;;;;14.50;7.27;;;;;;;;;;5045604;28;20178;-67
2022/01/07 12:27:08;;;;;;;12.50;7.47;;;;;;;;;;5048225;28;20189;-67
2022/01/07 12:29:39;;;;;;;14.27;7.27;;;;;;;;;;5044345;28;20676;-68
2022/01/07 12:32:06;;;;;;;16.10;7.53;;;;;;;;;;5046875;28;20705;-68
2022/01/07 12:34:34;;;;;;;18.37;7.30;;;;;;;;;;5042546;28;20181;-68
2022/01/07 12:37:02;;;;;;;14.63;6.87;;;;;;;;;;5046631;28;20181;-68
2022/01/07 12:39:31;;;;;;;9.20;6.60;;;;;;;;;;5042728;28;20192;-68
2022/01/07 12:41:57;;;;;;;13.80;7.10;;;;;;;;;;5048179;28;20228;-68
2022/01/07 12:44:23;;;;;;;15.63;7.50;;;;;;;;;;5042218;28;20510;-68
2022/01/07 12:46:55;;;;;;;17.33;7.30;;;;;;;;;;5043468;28;20861;-68
2022/01/07 12:49:33;;;;;;;14.87;6.90;;;;;;;;;;4340491;28;10000736;-69
2022/01/07 12:52:04;;;;;;;20.90;8.03;;;;;;;;;;5035319;28;20185;-68
2022/01/07 12:54:29;;;;;;;14.57;7.30;;;;;;;;;;5040516;28;20181;-68
2022/01/07 12:56:55;;;;;;;14.10;7.30;;;;;;;;;;5042083;28;20260;-68
2022/01/07 12:59:21;;;;;;;13.43;6.33;;;;;;;;;;5039968;28;20229;-68
2022/01/07 13:01:49;;;;;;;13.63;6.73;;;;;;;;;;5038584;28;20210;-68
2022/01/07 13:04:21;;;;;;;11.40;5.37;;;;;;;;;;5038806;28;20308;-68
2022/01/07 13:06:55;;;;;;;9.77;4.90;;;;;;;;;;5044051;28;20193;-68
2022/01/07 13:09:22;;;;;;;10.50;3.30;;;;;;;;;;5039460;28;20193;-69
2022/01/07 13:11:49;;;;;;;8.47;2.00;;;;;;;;;;5040455;28;20216;-70
2022/01/07 13:14:16;;;;;;;4.07;2.07;;;;;;;;;;5044423;28;20228;-71
2022/01/07 13:16:42;;;;;;;7.57;1.77;;;;;;;;;;5041698;28;20561;-72
2022/01/07 13:19:09;;;;;;;4.60;1.80;;;;;;;;;;5042512;28;20197;-74
2022/01/07 13:21:37;;;;;;;10.03;2.70;;;;;;;;;;5039295;28;20288;-72
2022/01/07 13:24:04;;;;;;;10.43;2.73;;;;;;;;;;5036788;28;20197;-71
2022/01/07 13:26:34;;;;;;;10.73;2.67;;;;;;;;;;5040845;28;20189;-72
2022/01/07 13:29:23;;;;;;;6.60;2.97;;;;;;;;;;5038140;28;20264;-71
2022/01/07 13:31:55;;;;;;;11.67;4.07;;;;;;;;;;5040108;28;20209;-74
2022/01/07 13:34:27;;;;;;;8.87;3.93;;;;;;;;;;5041321;28;20590;-75
2022/01/07 13:36:59;;;;;;;9.57;4.13;;;;;;;;;;5039838;28;20239;-76
2022/01/07 13:39:25;;;;;;;10.13;3.87;;;;;;;;;;5040316;28;20426;-76
2022/01/07 13:42:02;;;;;;;14.20;5.33;;;;;;;;;;5041105;28;20212;-76
2022/01/07 13:44:29;;;;;;;11.70;6.13;;;;;;;;;;5038545;28;20220;-76
2022/01/07 13:47:00;;;;;;;16.57;6.17;;;;;;;;;;5041470;28;21025;-76
2022/01/07 13:49:26;;;;;;;16.93;6.50;;;;;;;;;;5039434;28;20679;-76
2022/01/07 13:51:58;;;;;;;18.03;6.53;;;;;;;;;;5043434;28;20173;-75
2022/01/07 13:54:44;;;;;;;15.07;6.33;;;;;;;;;;5028032;28;20205;-75
2022/01/07 13:57:15;;;;;;;14.60;5.43;;;;;;;;;;5038805;28;20417;-74
2022/01/07 13:59:53;;;;;;;12.17;5.53;;;;;;;;;;5038373;28;20272;-77
2022/01/07 14:02:20;;;;;;;15.30;5.20;;;;;;;;;;5036556;28;20280;-75
2022/01/07 14:05:21;;;;;;;13.80;4.87;;;;;;;;;;5039169;28;20777;-75
2022/01/07 14:07:47;;;;;;;16.40;4.60;;;;;;;;;;5016231;28;20205;-75
2022/01/07 14:10:31;;;;;;;10.30;4.30;;;;;;;;;;5038729;28;20596;-75
2022/01/07 14:13:00;;;;;;;11.07;4.83;;;;;;;;;;5033594;28;20637;-75
2022/01/07 14:15:45;;;;;;;13.37;4.40;;;;;;;;;;5038119;28;20280;-74
2022/01/07 14:18:20;;;;;;;11.60;4.27;;;;;;;;;;5039847;28;20715;-73
2022/01/07 14:20:50;;;;;;;14.27;4.57;;;;;;;;;;5048448;28;20453;-74
2022/01/07 14:23:26;;;;;;;12.20;4.93;;;;;;;;;;5038531;28;20224;-74
2022/01/07 14:26:07;;;;;;;13.67;3.93;;;;;;;;;;5041662;28;20602;-73
2022/01/07 14:28:34;;;;;;;9.97;4.73;;;;;;;;;;5040430;28;20275;-73
2022/01/07 14:31:00;;;;;;;9.93;4.40;;;;;;;;;;5037831;28;20641;-72
2022/01/07 14:33:25;;;;;;;13.93;4.53;;;;;;;;;;5042011;28;20273;-72
2022/01/07 14:35:51;;;;;;;16.43;5.10;;;;;;;;;;5040701;28;20185;-73
2022/01/07 14:38:17;;;;;;;14.03;5.43;;;;;;;;;;5040356;28;20756;-72